地図

経路データ

SID SEASON NUMBER BASIN SUBBASIN NAME ISO_TIME NATURE LAT LON WMO_WIND WMO_PRES WMO_AGENCY TRACK_TYPE DIST2LAND LANDFALL IFLAG USA_AGENCY USA_ATCF_ID USA_LAT USA_LON USA_RECORD USA_STATUS USA_WIND USA_PRES USA_SSHS USA_R34_NE USA_R34_SE USA_R34_SW USA_R34_NW USA_R50_NE USA_R50_SE USA_R50_SW USA_R50_NW USA_R64_NE USA_R64_SE USA_R64_SW USA_R64_NW USA_POCI USA_ROCI USA_RMW USA_EYE TOKYO_LAT TOKYO_LON TOKYO_GRADE TOKYO_WIND TOKYO_PRES TOKYO_R50_DIR TOKYO_R50_LONG TOKYO_R50_SHORT TOKYO_R30_DIR TOKYO_R30_LONG TOKYO_R30_SHORT TOKYO_LAND CMA_LAT CMA_LON CMA_CAT CMA_WIND CMA_PRES HKO_LAT HKO_LON HKO_CAT HKO_WIND HKO_PRES NEWDELHI_LAT NEWDELHI_LON NEWDELHI_GRADE NEWDELHI_WIND NEWDELHI_PRES NEWDELHI_CI NEWDELHI_DP NEWDELHI_POCI REUNION_LAT REUNION_LON REUNION_TYPE REUNION_WIND REUNION_PRES REUNION_TNUM REUNION_CI REUNION_RMW REUNION_R34_NE REUNION_R34_SE REUNION_R34_SW REUNION_R34_NW REUNION_R50_NE REUNION_R50_SE REUNION_R50_SW REUNION_R50_NW REUNION_R64_NE REUNION_R64_SE REUNION_R64_SW REUNION_R64_NW BOM_LAT BOM_LON BOM_TYPE BOM_WIND BOM_PRES BOM_TNUM BOM_CI BOM_RMW BOM_R34_NE BOM_R34_SE BOM_R34_SW BOM_R34_NW BOM_R50_NE BOM_R50_SE BOM_R50_SW BOM_R50_NW BOM_R64_NE BOM_R64_SE BOM_R64_SW BOM_R64_NW BOM_ROCI BOM_POCI BOM_EYE BOM_POS_METHOD BOM_PRES_METHOD NADI_LAT NADI_LON NADI_CAT NADI_WIND NADI_PRES WELLINGTON_LAT WELLINGTON_LON WELLINGTON_WIND WELLINGTON_PRES DS824_LAT DS824_LON DS824_STAGE DS824_WIND DS824_PRES TD9636_LAT TD9636_LON TD9636_STAGE TD9636_WIND TD9636_PRES TD9635_LAT TD9635_LON TD9635_WIND TD9635_PRES TD9635_ROCI NEUMANN_LAT NEUMANN_LON NEUMANN_CLASS NEUMANN_WIND NEUMANN_PRES MLC_LAT MLC_LON MLC_CLASS MLC_WIND MLC_PRES USA_GUST BOM_GUST BOM_GUST_PER REUNION_GUST REUNION_GUST_PER USA_SEAHGT USA_SEARAD_NE USA_SEARAD_SE USA_SEARAD_SW USA_SEARAD_NW STORM_SPEED STORM_DIR
1874183N26275 1874 10 NA GM NOT_NAMED 1874-07-02 00:00:00 TS 25.8000 -85.1000 40 hurdat_atl main 299 299 O_____________ hurdat_atl AL011874 25.8000 -85.1000 TS 40 0 8 297
1874183N26275 1874 10 NA GM NOT_NAMED 1874-07-02 03:00:00 TS 25.9878 -85.5123 main 322 322 P_____________ AL011874 25.9878 -85.5123 TS 40 0 8 299
1874183N26275 1874 10 NA GM NOT_NAMED 1874-07-02 06:00:00 TS 26.2000 -85.9000 40 hurdat_atl main 349 349 O_____________ hurdat_atl AL011874 26.2000 -85.9000 TS 40 0 8 305
1874183N26275 1874 10 NA GM NOT_NAMED 1874-07-02 09:00:00 TS 26.4498 -86.2501 main 375 351 P_____________ AL011874 26.4498 -86.2501 TS 40 0 8 309
1874183N26275 1874 10 NA GM NOT_NAMED 1874-07-02 12:00:00 TS 26.7000 -86.6000 40 hurdat_atl main 354 312 O_____________ hurdat_atl AL011874 26.7000 -86.6000 TS 40 0 8 305
1874183N26275 1874 10 NA GM NOT_NAMED 1874-07-02 15:00:00 TS 26.9149 -86.9851 main 312 269 P_____________ AL011874 26.9149 -86.9851 TS 40 0 8 299
1874183N26275 1874 10 NA GM NOT_NAMED 1874-07-02 18:00:00 TS 27.1000 -87.4000 40 hurdat_atl main 269 237 O_____________ hurdat_atl AL011874 27.1000 -87.4000 TS 40 0 8 294
1874183N26275 1874 10 NA GM NOT_NAMED 1874-07-02 21:00:00 TS 27.2575 -87.8501 main 223 195 P_____________ AL011874 27.2575 -87.8501 TS 45 0 9 291
1874183N26275 1874 10 NA GM NOT_NAMED 1874-07-03 00:00:00 TS 27.4000 -88.3000 50 hurdat_atl main 195 161 O_____________ hurdat_atl AL011874 27.4000 -88.3000 TS 50 0 8 292
1874183N26275 1874 10 NA GM NOT_NAMED 1874-07-03 03:00:00 TS 27.5647 -88.6925 main 161 145 P_____________ AL011874 27.5647 -88.6925 TS 50 0 8 293
1874183N26275 1874 10 NA GM NOT_NAMED 1874-07-03 06:00:00 TS 27.7000 -89.1000 50 hurdat_atl main 145 137 O_____________ hurdat_atl AL011874 27.7000 -89.1000 TS 50 0 8 284
1874183N26275 1874 10 NA GM NOT_NAMED 1874-07-03 09:00:00 TS 27.7648 -89.5702 main 142 142 P_____________ AL011874 27.7648 -89.5702 TS 50 0 9 276
1874183N26275 1874 10 NA GM NOT_NAMED 1874-07-03 12:00:00 TS 27.8000 -90.1000 50 hurdat_atl main 145 133 O_____________ hurdat_atl AL011874 27.8000 -90.1000 TS 50 0 10 275
1874183N26275 1874 10 NA GM NOT_NAMED 1874-07-03 15:00:00 TS 27.8574 -90.6849 main 134 133 P_____________ AL011874 27.8574 -90.6849 TS 50 0 11 275
1874183N26275 1874 10 NA GM NOT_NAMED 1874-07-03 18:00:00 TS 27.9000 -91.3000 50 hurdat_atl main 139 139 O_____________ hurdat_atl AL011874 27.9000 -91.3000 TS 50 0 11 273
1874183N26275 1874 10 NA GM NOT_NAMED 1874-07-03 21:00:00 TS 27.9071 -91.8926 main 164 164 P_____________ AL011874 27.9071 -91.8926 TS 50 0 11 270
1874183N26275 1874 10 NA GM NOT_NAMED 1874-07-04 00:00:00 TS 27.9000 -92.5000 50 hurdat_atl main 179 179 O_____________ hurdat_atl AL011874 27.9000 -92.5000 TS 50 0 11 269
1874183N26275 1874 10 NA GM NOT_NAMED 1874-07-04 03:00:00 TS 27.8925 -93.1576 main 198 183 P_____________ AL011874 27.8925 -93.1576 TS 50 0 11 270
1874183N26275 1874 10 NA GM NOT_NAMED 1874-07-04 06:00:00 TS 27.9000 -93.8000 50 hurdat_atl main 183 151 O_____________ hurdat_atl AL011874 27.9000 -93.8000 TS 50 0 11 272
1874183N26275 1874 10 NA GM NOT_NAMED 1874-07-04 09:00:00 TS 27.9273 -94.3801 main 145 111 P_____________ AL011874 27.9273 -94.3801 TS 50 0 10 276
1874183N26275 1874 10 NA GM NOT_NAMED 1874-07-04 12:00:00 TS 28.0000 -94.9000 50 hurdat_atl main 111 87 O_____________ hurdat_atl AL011874 28.0000 -94.9000 TS 50 0 9 282
1874183N26275 1874 10 NA GM NOT_NAMED 1874-07-04 15:00:00 TS 28.1017 -95.3283 main 87 38 P_____________ AL011874 28.1017 -95.3283 TS 50 0 8 291
1874183N26275 1874 10 NA GM NOT_NAMED 1874-07-04 18:00:00 TS 28.3000 -95.8000 50 hurdat_atl main 38 0 O_____________ hurdat_atl AL011874 28.3000 -95.8000 TS 50 0 10 297
1874183N26275 1874 10 NA GM NOT_NAMED 1874-07-04 20:00:00 TS 28.5000 -96.2000 50 hurdat_atl main 0 0 O_____________ hurdat_atl AL011874 28.5000 -96.2000 L TS 50 0 11 299
1874183N26275 1874 10 NA GM NOT_NAMED 1874-07-04 21:00:00 TS 28.5822 -96.3685 main 0 0 P_____________ AL011874 28.5822 -96.3685 TS 47 0 9 300
1874183N26275 1874 10 NA NA NOT_NAMED 1874-07-05 00:00:00 TS 28.8000 -96.8000 40 hurdat_atl main 0 0 O_____________ hurdat_atl AL011874 28.8000 -96.8000 TS 40 0 9 302
1874183N26275 1874 10 NA NA NOT_NAMED 1874-07-05 03:00:00 TS 29.0764 -97.2750 main 0 0 P_____________ AL011874 29.0764 -97.2750 TS 35 0 11 304
1874183N26275 1874 10 NA NA NOT_NAMED 1874-07-05 06:00:00 TS 29.4000 -97.8000 30 hurdat_atl main 0 O_____________ hurdat_atl AL011874 29.4000 -97.8000 TD 30 -1 11 305

IBTrACS Databaseについて

本データベースは、米国NOAAが公開する1842年以降の世界の熱帯低気圧のベストトラックデータアーカイブInternational Best Track Archive for Climate Stewardship (IBTrACS)を、ウェブで閲覧しやすい形式に変換したものです。

最終更新日:2021-12-06